createdAt,value
2022-09-28T00:01:24.167Z,4.43
2022-09-28T00:06:25.203Z,2.15
2022-09-28T00:11:26.834Z,4.43
2022-09-28T00:16:25.994Z,2.17
2022-09-28T00:21:25.590Z,3.95
2022-09-28T00:26:19.892Z,8.10
2022-09-28T00:31:13.690Z,3.03
2022-09-28T00:36:07.770Z,6.50
2022-09-28T00:41:02.389Z,4.57
2022-09-28T00:46:02.762Z,3.00
2022-09-28T00:50:57.937Z,3.55
2022-09-28T00:55:56.628Z,4.80
2022-09-28T01:00:51.096Z,3.17
2022-09-28T01:05:46.526Z,3.60
2022-09-28T01:10:40.538Z,2.08
2022-09-28T01:15:43.865Z,3.88
2022-09-28T01:21:23.246Z,3.22
2022-09-28T01:26:49.615Z,4.32
2022-09-28T01:31:46.938Z,3.15
2022-09-28T01:36:46.132Z,4.30
2022-09-28T01:41:41.072Z,4.25
2022-09-28T01:46:47.349Z,4.82
2022-09-28T01:51:52.278Z,4.22
2022-09-28T01:57:20.184Z,4.32
2022-09-28T02:02:19.695Z,4.28
2022-09-28T02:07:17.211Z,3.45
2022-09-28T02:12:20.919Z,3.65
2022-09-28T02:17:16.689Z,6.20
2022-09-28T02:22:34.067Z,2.83
2022-09-28T02:27:34.949Z,3.00
2022-09-28T02:32:30.197Z,2.97
2022-09-28T02:37:24.644Z,4.95
2022-09-28T02:42:28.152Z,4.22
2022-09-28T02:47:43.957Z,3.45
2022-09-28T02:53:19.604Z,4.07
2022-09-28T02:58:15.134Z,3.28
2022-09-28T03:03:19.763Z,3.25
2022-09-28T03:08:15.694Z,5.75
2022-09-28T03:13:09.655Z,5.55
2022-09-28T03:18:10.965Z,4.22
2022-09-28T03:23:23.754Z,3.40
2022-09-28T03:28:16.835Z,5.65
2022-09-28T03:33:11.027Z,4.60
2022-09-28T03:38:04.865Z,4.63
2022-09-28T03:43:02.433Z,4.80
2022-09-28T03:47:56.948Z,7.10
2022-09-28T03:52:50.079Z,6.53
2022-09-28T04:02:36.321Z,6.00
2022-09-28T04:07:31.196Z,5.05
2022-09-28T04:12:25.476Z,5.57
2022-09-28T04:17:18.277Z,4.70
2022-09-28T04:22:12.908Z,6.03
2022-09-28T04:27:24.814Z,5.30
2022-09-28T04:32:18.805Z,6.03
2022-09-28T04:37:12.122Z,7.18
2022-09-28T04:42:06.095Z,4.45
2022-09-28T04:47:04.834Z,7.60
2022-09-28T04:51:58.163Z,6.38
2022-09-28T04:56:53.383Z,4.78
2022-09-28T05:01:47.914Z,5.78
2022-09-28T05:07:01.724Z,6.18
2022-09-28T05:11:55.733Z,5.85
2022-09-28T05:16:51.861Z,9.02
2022-09-28T05:21:49.846Z,7.63
2022-09-28T05:26:44.241Z,7.15
2022-09-28T05:31:38.112Z,8.98
2022-09-28T05:37:03.562Z,7.13
2022-09-28T05:41:58.740Z,9.95
2022-09-28T05:46:54.518Z,5.00
2022-09-28T05:51:49.686Z,6.60
2022-09-28T05:56:43.040Z,5.88
2022-09-28T06:01:37.559Z,5.57
2022-09-28T06:06:37.478Z,3.88
2022-09-28T06:11:32.052Z,6.28
2022-09-28T06:16:29.274Z,4.97
2022-09-28T06:21:22.709Z,5.78
2022-09-28T06:26:17.625Z,7.28
2022-09-28T06:31:12.182Z,7.45
2022-09-28T06:36:14.200Z,10.63
2022-09-28T06:41:07.694Z,5.60
2022-09-28T06:46:01.232Z,9.55
2022-09-28T06:50:58.176Z,5.70
2022-09-28T06:55:59.373Z,8.50
2022-09-28T07:00:53.532Z,11.68
2022-09-28T07:05:49.875Z,7.53
2022-09-28T07:10:57.972Z,7.30
2022-09-28T07:16:10.637Z,6.38
2022-09-28T07:21:05.825Z,7.30
2022-09-28T07:25:59.396Z,7.43
2022-09-28T07:31:11.282Z,8.73
2022-09-28T07:36:35.891Z,8.07
2022-09-28T07:41:35.677Z,6.22
2022-09-28T07:46:33.905Z,5.10
2022-09-28T07:51:32.641Z,4.68
2022-09-28T07:56:50.422Z,6.45
2022-09-28T08:02:00.095Z,5.22
2022-09-28T08:06:54.323Z,7.63
2022-09-28T08:11:48.038Z,10.63
2022-09-28T08:17:24.730Z,10.07
2022-09-28T08:22:23.422Z,13.57
2022-09-28T08:27:19.437Z,18.75
2022-09-28T08:32:12.582Z,8.80
2022-09-28T08:37:37.965Z,11.93
2022-09-28T08:43:11.173Z,7.50
2022-09-28T08:48:51.791Z,10.23
2022-09-28T08:54:39.557Z,10.00
2022-09-28T09:00:02.874Z,12.02
2022-09-28T09:05:01.278Z,13.57
2022-09-28T09:10:31.484Z,11.48
2022-09-28T09:15:33.787Z,9.20
2022-09-28T09:20:53.185Z,11.20
2022-09-28T09:25:58.326Z,13.82
2022-09-28T09:31:09.647Z,12.60
2022-09-28T09:36:18.687Z,11.40
2022-09-28T09:41:49.987Z,12.65
2022-09-28T09:47:18.582Z,12.35
2022-09-28T09:52:44.770Z,9.55
2022-09-28T09:57:45.659Z,14.27
2022-09-28T10:02:56.722Z,9.80
2022-09-28T10:08:16.911Z,7.72
2022-09-28T10:13:12.022Z,11.52
2022-09-28T10:18:11.261Z,6.05
2022-09-28T10:23:20.322Z,7.68
2022-09-28T10:28:24.251Z,7.38
2022-09-28T10:33:34.323Z,7.43
2022-09-28T10:38:30.867Z,5.18
2022-09-28T10:43:36.532Z,6.32
2022-09-28T10:48:40.057Z,5.82
2022-09-28T10:53:34.872Z,5.65
2022-09-28T10:58:36.985Z,5.32
2022-09-28T11:03:32.759Z,4.85
2022-09-28T11:08:39.556Z,9.95
2022-09-28T11:13:40.641Z,3.67
2022-09-28T11:18:37.073Z,4.70
2022-09-28T11:23:32.473Z,4.82
2022-09-28T11:28:42.008Z,4.85
2022-09-28T11:33:44.084Z,6.45
2022-09-28T11:39:20.652Z,10.63
2022-09-28T11:44:39.733Z,6.60
2022-09-28T11:49:56.838Z,181.88
2022-09-28T11:54:53.785Z,231.15
2022-09-28T12:00:20.848Z,180.32
2022-09-28T12:10:45.680Z,110.55
2022-09-28T12:16:16.820Z,89.45
2022-09-28T12:21:21.816Z,73.68
2022-09-28T12:26:37.280Z,65.15
2022-09-28T12:31:39.251Z,64.50
2022-09-28T12:36:55.219Z,58.95
2022-09-28T12:42:12.825Z,56.50
2022-09-28T12:47:32.603Z,60.10
2022-09-28T12:52:58.124Z,52.70
2022-09-28T12:58:00.163Z,49.72
2022-09-28T13:02:53.181Z,49.95
2022-09-28T13:13:01.886Z,46.67
2022-09-28T13:18:10.880Z,45.10
2022-09-28T13:23:30.037Z,37.97
2022-09-28T13:28:27.240Z,35.90
2022-09-28T13:33:32.360Z,30.48
2022-09-28T13:38:26.173Z,29.02
2022-09-28T13:43:30.568Z,26.40
2022-09-28T13:48:48.604Z,27.45
2022-09-28T13:53:54.079Z,26.80
2022-09-28T13:59:15.444Z,27.13
2022-09-28T14:04:22.373Z,22.17
2022-09-28T14:09:36.260Z,22.45
2022-09-28T14:14:49.918Z,17.67
2022-09-28T14:19:44.377Z,22.33
2022-09-28T14:24:53.273Z,18.73
2022-09-28T14:29:47.852Z,18.98
2022-09-28T14:34:46.169Z,17.35
2022-09-28T14:40:03.739Z,19.63
2022-09-28T14:45:06.166Z,16.67
2022-09-28T14:50:05.843Z,19.45
2022-09-28T14:54:59.771Z,18.13
2022-09-28T14:59:52.781Z,15.75
2022-09-28T15:04:48.834Z,14.75
2022-09-28T15:09:42.655Z,17.00
2022-09-28T15:14:42.227Z,14.05
2022-09-28T15:19:45.413Z,13.55
2022-09-28T15:29:33.844Z,14.05
2022-09-28T15:34:51.285Z,18.38
2022-09-28T15:39:49.179Z,12.02
2022-09-28T15:44:43.477Z,14.15
2022-09-28T15:49:46.816Z,14.25
2022-09-28T15:54:43.770Z,17.17
2022-09-28T15:59:39.842Z,14.77
2022-09-28T16:04:51.161Z,16.13
2022-09-28T16:10:14.435Z,13.57
2022-09-28T16:15:29.170Z,12.63
2022-09-28T16:20:36.474Z,13.00
2022-09-28T16:25:30.329Z,12.23
2022-09-28T16:30:26.997Z,12.80
2022-09-28T16:35:42.583Z,13.45
2022-09-28T16:40:40.799Z,14.93
2022-09-28T16:45:35.541Z,10.88
2022-09-28T16:50:28.844Z,11.60
2022-09-28T16:55:39.402Z,10.80
2022-09-28T17:00:33.567Z,12.82
2022-09-28T17:05:27.380Z,10.20
2022-09-28T17:11:14.802Z,11.45
2022-09-28T17:16:18.616Z,10.80
2022-09-28T17:21:20.858Z,9.30
2022-09-28T17:26:37.597Z,9.48
2022-09-28T17:31:31.245Z,10.15
2022-09-28T17:36:26.430Z,9.75
2022-09-28T17:41:21.297Z,9.38
2022-09-28T17:46:17.356Z,8.15
2022-09-28T17:51:11.798Z,9.63
2022-09-28T17:56:05.947Z,8.95
2022-09-28T18:01:00.180Z,9.35
2022-09-28T18:06:13.983Z,8.43
2022-09-28T18:11:06.873Z,8.95
2022-09-28T18:16:00.499Z,7.57
2022-09-28T18:20:54.592Z,9.48
2022-09-28T18:25:48.023Z,8.77
2022-09-28T18:30:44.264Z,7.10
2022-09-28T18:35:38.370Z,7.05
2022-09-28T18:40:33.535Z,7.35
2022-09-28T18:45:26.777Z,9.55
2022-09-28T18:50:20.189Z,10.27
2022-09-28T18:55:13.849Z,7.65
2022-09-28T19:00:13.996Z,8.82
2022-09-28T19:05:09.676Z,9.07
2022-09-28T19:10:03.579Z,16.40
2022-09-28T19:14:57.301Z,10.00
2022-09-28T19:19:52.130Z,7.57
2022-09-28T19:24:45.875Z,9.27
2022-09-28T19:29:39.548Z,7.18
2022-09-28T19:34:34.008Z,5.50
2022-09-28T19:39:27.864Z,7.55
2022-09-28T19:44:27.334Z,8.02
2022-09-28T19:49:22.786Z,7.90
2022-09-28T19:54:17.217Z,9.43
2022-09-28T19:59:12.405Z,9.10
2022-09-28T20:04:06.233Z,6.22
2022-09-28T20:09:00.190Z,8.07
2022-09-28T20:13:56.257Z,7.00
2022-09-28T20:18:53.336Z,10.30
2022-09-28T20:23:47.355Z,7.05
2022-09-28T20:28:40.890Z,5.97
2022-09-28T20:33:35.950Z,11.57
2022-09-28T20:38:31.163Z,7.57
2022-09-28T20:43:25.125Z,6.10
2022-09-28T20:48:20.194Z,8.00
2022-09-28T20:53:13.978Z,7.55
2022-09-28T20:58:08.255Z,7.25
2022-09-28T21:03:02.678Z,9.13
2022-09-28T21:07:56.642Z,5.50
2022-09-28T21:12:53.880Z,5.93
2022-09-28T21:17:47.423Z,6.80
2022-09-28T21:22:41.322Z,5.03
2022-09-28T21:27:36.263Z,4.47
2022-09-28T21:32:30.450Z,6.18
2022-09-28T21:37:24.859Z,7.30
2022-09-28T21:42:18.967Z,11.32
2022-09-28T21:47:11.893Z,6.00
2022-09-28T21:52:05.820Z,5.10
2022-09-28T21:56:59.593Z,4.32
2022-09-28T22:01:53.757Z,4.85
2022-09-28T22:06:47.028Z,5.65
2022-09-28T22:11:44.859Z,7.15
2022-09-28T22:16:38.878Z,4.50
2022-09-28T22:21:35.640Z,6.63
2022-09-28T22:26:30.651Z,6.05
2022-09-28T22:31:32.551Z,4.65
2022-09-28T22:36:27.257Z,3.80
2022-09-28T22:41:21.736Z,4.95
2022-09-28T22:46:19.855Z,3.33
2022-09-28T22:51:15.128Z,5.53
2022-09-28T22:56:09.293Z,4.32
2022-09-28T23:01:07.969Z,3.75
2022-09-28T23:06:01.799Z,4.97
2022-09-28T23:10:54.902Z,6.38
2022-09-28T23:16:05.618Z,4.28
2022-09-28T23:21:21.381Z,4.35
2022-09-28T23:26:20.724Z,6.43
2022-09-28T23:31:24.827Z,4.18
2022-09-28T23:36:19.577Z,5.65
2022-09-28T23:41:13.525Z,3.72
2022-09-28T23:46:06.509Z,3.17
2022-09-28T23:55:52.770Z,6.70
